Harry Borthen I — LCOG — position and weather

sailwx.info

Track history (hours):
 
Tides and Currents Weather Stations Pressure Air Temp Water Temp Dewpoint Dewpoint Depression Visibility Wind Speed Wind Dir Waves Ship Positions

Oceanographic research ship Harry Borthen I (Norway)

Detailed information on ship capabilities available from University of Delaware's Ocean Information Center.

Last reported at 2020-Oct-11 11:28 UTC. Time now 2020-Oct-29 02:46 UTC.
Position N 63°26' E 010°24'.
Warning: this ship's position is 17 days out of date.

Length 15 m.

Type: Other ship. MMSI: 257202800.

Date/timePositionNaut miles runAvg speedWind from/ knotsBaromVisibWave heightAir tempDewpointWater temp
2020-Oct-11 11:28N 63°26' E 010°24'  
2020-Oct-08 15:28N 63°26' E 010°23'2 2.5
2020-Oct-08 14:31N 63°28' E 010°20'0 0.3
2020-Oct-08 14:00N 63°28' E 010°20'1 0.5
2020-Oct-08 12:26N 63°27' E 010°21'1 0.5
2020-Oct-08 10:30N 63°27' E 010°22'  
2020-Oct-04 09:10N 63°29' E 010°26'3 1.0
2020-Oct-04 05:59N 63°26' E 010°24'0 0.0
2020-Oct-04 05:29N 63°26' E 010°24'0 0.0
2020-Oct-04 04:29N 63°26' E 010°24'0 0.0
2020-Oct-04 03:56N 63°26' E 010°24'0 0.0
2020-Oct-04 03:29N 63°26' E 010°24'0 0.0
2020-Oct-03 23:59N 63°26' E 010°24'0 0.0
2020-Oct-03 22:29N 63°26' E 010°24'0 0.0
2020-Oct-03 20:59N 63°26' E 010°24'0 0.0
2020-Oct-03 19:59N 63°26' E 010°24'0 0.0
2020-Oct-03 15:59N 63°26' E 010°24'0 0.0
2020-Oct-03 15:29N 63°26' E 010°24'3 0.5
2020-Oct-03 09:08N 63°29' E 010°27'2 1.5
2020-Oct-03 07:47N 63°27' E 010°25'2 7.1
2020-Oct-03 07:30N 63°26' E 010°22'0 0.0
2020-Oct-03 07:00N 63°26' E 010°22'  
Track history (hours):
 
Tides and Currents Weather Stations Pressure Air Temp Water Temp Dewpoint Dewpoint Depression Visibility Wind Speed Wind Dir Waves Ship Positions

Oceanographic research ship Harry Borthen I (Norway)

Detailed information on ship capabilities available from University of Delaware's Ocean Information Center.

Last reported at 2020-Oct-11 11:28 UTC. Time now 2020-Oct-29 02:46 UTC.
Position N 63°26' E 010°24'.
Warning: this ship's position is 17 days out of date.

Length 15 m.

Type: Other ship. MMSI: 257202800.

Date/timePositionNaut miles runAvg speedWind from/ knotsBaromVisibWave heightAir tempDewpointWater temp
2020-Oct-11 11:28N 63°26' E 010°24'  
2020-Oct-08 15:28N 63°26' E 010°23'2 2.5
2020-Oct-08 14:31N 63°28' E 010°20'0 0.3
2020-Oct-08 14:00N 63°28' E 010°20'1 0.5
2020-Oct-08 12:26N 63°27' E 010°21'1 0.5
2020-Oct-08 10:30N 63°27' E 010°22'  
2020-Oct-04 09:10N 63°29' E 010°26'3 1.0
2020-Oct-04 05:59N 63°26' E 010°24'0 0.0
2020-Oct-04 05:29N 63°26' E 010°24'0 0.0
2020-Oct-04 04:29N 63°26' E 010°24'0 0.0
2020-Oct-04 03:56N 63°26' E 010°24'0 0.0
2020-Oct-04 03:29N 63°26' E 010°24'0 0.0
2020-Oct-03 23:59N 63°26' E 010°24'0 0.0
2020-Oct-03 22:29N 63°26' E 010°24'0 0.0
2020-Oct-03 20:59N 63°26' E 010°24'0 0.0
2020-Oct-03 19:59N 63°26' E 010°24'0 0.0
2020-Oct-03 15:59N 63°26' E 010°24'0 0.0
2020-Oct-03 15:29N 63°26' E 010°24'3 0.5
2020-Oct-03 09:08N 63°29' E 010°27'2 1.5
2020-Oct-03 07:47N 63°27' E 010°25'2 7.1
2020-Oct-03 07:30N 63°26' E 010°22'0 0.0
2020-Oct-03 07:00N 63°26' E 010°22'  

Dump ship's entire track history